Time;durP1;ratioP1;P1;durP2;ratioP2;P2;SDS_P1;SDS_P2;PMS_P1;PMS_P2;Temp;Humidity;BMP_temperature;BMP_pressure;BME280_temperature;BME280_humidity;BME280_pressure;Samples;Min_cycle;Max_cycle;Signal;HPM_P1;HPM_P2
2020/12/08 00:01:37;;;;;;;55.83;28.63;;;0.40;99.90;;;;;;5007746;28;20046;-73
2020/12/08 00:04:04;;;;;;;56.97;28.83;;;0.40;99.90;;;;;;4991977;28;20405;-74
2020/12/08 00:06:30;;;;;;;58.28;28.35;;;0.40;99.90;;;;;;5009244;28;20049;-75
2020/12/08 00:08:57;;;;;;;67.43;31.50;;;0.40;99.90;;;;;;5008978;28;20068;-74
2020/12/08 00:11:24;;;;;;;66.30;31.85;;;0.40;99.90;;;;;;5008416;28;20402;-73
2020/12/08 00:13:51;;;;;;;72.05;32.60;;;0.40;99.90;;;;;;5008789;28;20072;-73
2020/12/08 00:16:17;;;;;;;66.55;32.30;;;0.40;99.90;;;;;;4989614;28;20104;-76
2020/12/08 00:18:43;;;;;;;73.07;32.67;;;0.40;99.90;;;;;;5009365;28;20068;-73
2020/12/08 00:21:10;;;;;;;68.15;32.60;;;0.40;99.90;;;;;;5009716;28;20056;-74
2020/12/08 00:23:36;;;;;;;66.32;32.53;;;0.40;99.90;;;;;;5015813;28;20057;-73
2020/12/08 00:26:04;;;;;;;73.32;34.05;;;0.40;99.90;;;;;;5015059;28;20060;-74
2020/12/08 00:28:33;;;;;;;66.18;32.38;;;0.40;99.90;;;;;;5013035;28;20103;-74
2020/12/08 00:30:59;;;;;;;70.65;33.35;;;0.30;99.90;;;;;;5014434;28;20402;-74
2020/12/08 00:33:26;;;;;;;68.40;31.65;;;0.30;99.90;;;;;;5015086;28;20077;-74
2020/12/08 00:35:53;;;;;;;71.43;34.85;;;0.30;99.90;;;;;;5015204;28;20535;-74
2020/12/08 00:38:20;;;;;;;68.65;33.60;;;0.30;99.90;;;;;;5015464;28;20164;-74
2020/12/08 00:40:46;;;;;;;61.08;31.20;;;0.30;99.90;;;;;;4997186;28;20050;-74
2020/12/08 00:43:13;;;;;;;61.97;32.47;;;0.40;99.90;;;;;;5004228;28;20093;-76
2020/12/08 00:45:39;;;;;;;79.00;34.05;;;0.40;99.90;;;;;;4996565;28;20135;-74
2020/12/08 00:48:05;;;;;;;77.25;35.45;;;0.40;99.90;;;;;;4997895;28;20451;-73
2020/12/08 00:50:32;;;;;;;79.90;33.72;;;0.40;99.90;;;;;;5015045;28;20050;-74
2020/12/08 00:52:58;;;;;;;76.38;35.45;;;0.40;99.90;;;;;;5015556;28;20169;-73
2020/12/08 00:55:25;;;;;;;73.03;33.63;;;0.40;99.90;;;;;;5001665;28;20079;-74
2020/12/08 00:57:51;;;;;;;76.70;34.58;;;0.40;99.90;;;;;;5014822;28;20460;-73
2020/12/08 01:00:17;;;;;;;75.90;35.25;;;0.40;99.90;;;;;;4996435;28;20057;-74
2020/12/08 01:02:44;;;;;;;75.63;35.15;;;0.40;99.90;;;;;;4997002;28;20543;-74
2020/12/08 01:05:11;;;;;;;68.70;32.25;;;0.40;99.90;;;;;;5014894;28;20054;-74
2020/12/08 01:07:39;;;;;;;66.22;32.25;;;0.40;99.90;;;;;;5015270;28;20565;-75
2020/12/08 01:10:07;;;;;;;68.30;32.63;;;0.40;99.90;;;;;;5013882;28;20402;-75
2020/12/08 01:12:34;;;;;;;66.50;31.92;;;0.40;99.90;;;;;;5015389;28;20074;-74
2020/12/08 01:15:00;;;;;;;68.60;32.17;;;0.40;99.90;;;;;;5013157;28;20135;-74
2020/12/08 01:17:26;;;;;;;69.93;32.80;;;0.40;99.90;;;;;;5010807;28;20126;-73
2020/12/08 01:19:53;;;;;;;68.68;32.00;;;0.40;99.90;;;;;;4989545;28;20148;-73
2020/12/08 01:22:19;;;;;;;72.40;32.95;;;0.40;99.90;;;;;;5003673;28;20050;-73
2020/12/08 01:24:45;;;;;;;68.85;33.28;;;0.40;99.90;;;;;;5025544;28;20421;-73
2020/12/08 01:27:12;;;;;;;73.07;32.65;;;0.40;99.90;;;;;;5014650;28;20413;-73
2020/12/08 01:29:38;;;;;;;69.05;32.47;;;0.40;99.90;;;;;;5014214;28;20386;-73
2020/12/08 01:32:05;;;;;;;72.50;32.67;;;0.40;99.90;;;;;;5011905;28;20115;-73
2020/12/08 01:34:31;;;;;;;66.07;32.40;;;0.40;99.90;;;;;;5011897;28;20041;-73
2020/12/08 01:36:58;;;;;;;63.03;31.98;;;0.40;99.90;;;;;;5011647;28;20450;-73
2020/12/08 01:39:25;;;;;;;68.78;32.70;;;0.40;99.90;;;;;;5011237;28;20165;-73
2020/12/08 01:41:55;;;;;;;61.63;30.08;;;0.40;99.90;;;;;;5011066;28;20052;-73
2020/12/08 01:44:23;;;;;;;75.68;34.92;;;0.40;99.90;;;;;;5011553;28;20104;-74
2020/12/08 01:46:49;;;;;;;73.50;33.53;;;0.40;99.90;;;;;;5010575;28;20050;-73
2020/12/08 01:49:17;;;;;;;69.10;31.73;;;0.40;99.90;;;;;;4994617;28;20050;-73
2020/12/08 01:51:44;;;;;;;68.28;32.47;;;0.40;99.90;;;;;;5011792;28;20050;-74
2020/12/08 01:54:12;;;;;;;62.03;31.10;;;0.40;99.90;;;;;;5011506;28;20057;-74
2020/12/08 01:56:38;;;;;;;67.25;32.75;;;0.40;99.90;;;;;;5004757;28;20157;-73
2020/12/08 01:59:05;;;;;;;62.92;30.23;;;0.40;99.90;;;;;;4993849;28;20042;-74
2020/12/08 02:01:32;;;;;;;63.30;30.60;;;0.30;99.90;;;;;;5010322;28;20141;-74
2020/12/08 02:03:59;;;;;;;66.38;32.22;;;0.30;99.90;;;;;;5011548;28;20046;-75
2020/12/08 02:06:26;;;;;;;62.25;30.27;;;0.20;99.90;;;;;;5010772;28;20092;-76
2020/12/08 02:08:52;;;;;;;63.38;32.00;;;0.20;99.90;;;;;;5011634;28;20136;-74
2020/12/08 02:11:19;;;;;;;67.18;32.42;;;0.20;99.90;;;;;;5010961;28;20404;-76
2020/12/08 02:13:46;;;;;;;66.05;32.63;;;0.10;99.90;;;;;;5011216;28;20054;-73
2020/12/08 02:16:13;;;;;;;74.15;31.55;;;0.10;99.90;;;;;;5010182;28;20112;-74
2020/12/08 02:18:40;;;;;;;68.68;32.67;;;0.10;99.90;;;;;;5011115;28;20200;-74
2020/12/08 02:21:06;;;;;;;77.90;34.03;;;0.10;99.90;;;;;;5010482;28;20050;-74
2020/12/08 02:23:33;;;;;;;75.00;34.95;;;0.10;99.90;;;;;;5011241;28;20053;-74
2020/12/08 02:26:02;;;;;;;83.20;37.45;;;0.10;99.90;;;;;;5010379;28;20409;-74
2020/12/08 02:28:29;;;;;;;80.35;35.38;;;0.00;99.90;;;;;;5004123;28;20120;-74
2020/12/08 02:30:57;;;;;;;83.40;36.08;;;0.10;99.90;;;;;;5009964;28;20050;-74
2020/12/08 02:33:25;;;;;;;81.82;36.90;;;0.10;99.90;;;;;;5024445;28;20362;-75
2020/12/08 02:35:55;;;;;;;79.45;35.33;;;0.20;99.90;;;;;;5010350;28;20185;-74
2020/12/08 02:38:26;;;;;;;71.88;33.78;;;0.20;99.90;;;;;;5010961;28;20362;-74
2020/12/08 02:40:52;;;;;;;74.85;34.75;;;0.20;99.90;;;;;;5008450;28;20065;-74
2020/12/08 02:43:20;;;;;;;72.22;32.58;;;0.20;99.90;;;;;;5005463;28;20041;-77
2020/12/08 02:45:47;;;;;;;65.53;31.00;;;0.20;99.90;;;;;;5008692;28;20049;-74
2020/12/08 02:48:14;;;;;;;68.60;30.13;;;0.20;99.90;;;;;;5010069;28;20054;-76
2020/12/08 02:50:56;;;;;;;62.20;30.40;;;0.20;99.90;;;;;;5010570;28;20056;-74
2020/12/08 02:53:23;;;;;;;58.03;29.15;;;0.30;99.90;;;;;;5004599;28;20104;-74
2020/12/08 02:55:50;;;;;;;58.63;28.92;;;0.30;99.90;;;;;;4996047;28;20046;-75
2020/12/08 02:58:16;;;;;;;57.90;28.77;;;0.30;99.90;;;;;;5010520;28;20054;-75
2020/12/08 03:00:42;;;;;;;54.33;28.88;;;0.30;99.90;;;;;;5008867;28;20128;-75
2020/12/08 03:03:09;;;;;;;60.20;29.20;;;0.20;99.90;;;;;;4992684;28;20104;-74
2020/12/08 03:05:35;;;;;;;51.28;26.75;;;0.20;99.90;;;;;;5009561;28;20046;-75
2020/12/08 03:08:03;;;;;;;59.38;31.63;;;0.10;99.90;;;;;;4992913;28;20447;-74
2020/12/08 03:10:29;;;;;;;63.30;32.20;;;0.10;99.90;;;;;;5005463;28;20420;-74
2020/12/08 03:12:56;;;;;;;69.28;32.55;;;0.10;99.90;;;;;;5010095;28;20045;-74
2020/12/08 03:15:22;;;;;;;64.78;31.38;;;0.10;99.90;;;;;;5007984;28;20057;-74
2020/12/08 03:17:49;;;;;;;64.20;31.45;;;0.10;99.90;;;;;;5009783;28;20493;-77
2020/12/08 03:20:15;;;;;;;65.95;31.55;;;0.00;99.90;;;;;;5009862;28;20045;-75
2020/12/08 03:22:41;;;;;;;66.70;31.67;;;0.00;99.90;;;;;;5009879;28;20123;-74
2020/12/08 03:25:08;;;;;;;66.68;31.23;;;0.00;99.90;;;;;;4998682;28;20065;-76
2020/12/08 03:27:36;;;;;;;67.93;32.17;;;-0.10;99.90;;;;;;4991852;28;20050;-73
2020/12/08 03:30:05;;;;;;;74.90;34.80;;;-0.20;99.90;;;;;;5008285;28;20057;-74
2020/12/08 03:32:31;;;;;;;84.25;34.90;;;-0.10;99.90;;;;;;4999573;28;20046;-74
2020/12/08 03:34:58;;;;;;;80.97;36.38;;;-0.20;99.90;;;;;;5009268;28;20044;-76
2020/12/08 03:37:25;;;;;;;77.13;34.65;;;-0.20;99.90;;;;;;5009693;28;20046;-74
2020/12/08 03:39:51;;;;;;;73.53;34.10;;;-0.20;99.90;;;;;;4990753;28;20588;-74
2020/12/08 03:42:18;;;;;;;80.95;34.55;;;-0.20;99.90;;;;;;4992145;28;20386;-74
2020/12/08 03:44:44;;;;;;;90.70;36.35;;;-0.20;99.90;;;;;;5002103;28;20480;-76
2020/12/08 03:47:11;;;;;;;81.88;36.40;;;-0.30;99.90;;;;;;4990989;28;20050;-74
2020/12/08 03:49:37;;;;;;;81.82;35.00;;;-0.30;99.90;;;;;;5009815;28;20064;-74
2020/12/08 03:52:04;;;;;;;84.90;36.60;;;-0.30;99.90;;;;;;5009392;28;20053;-74
2020/12/08 03:54:30;;;;;;;73.68;33.25;;;-0.40;99.90;;;;;;5008209;28;20077;-74
2020/12/08 03:56:59;;;;;;;86.30;34.65;;;-0.50;99.90;;;;;;5005414;28;20157;-74
2020/12/08 03:59:25;;;;;;;88.22;39.78;;;-0.50;99.90;;;;;;5008876;28;20191;-74
2020/12/08 04:01:52;;;;;;;87.78;36.60;;;-0.50;99.90;;;;;;5007730;28;20057;-73
2020/12/08 04:04:19;;;;;;;100.60;39.13;;;-0.50;99.90;;;;;;4998577;28;20088;-76
2020/12/08 04:06:46;;;;;;;95.85;38.05;;;-0.50;99.90;;;;;;5009205;28;20068;-73
2020/12/08 04:09:13;;;;;;;95.15;37.85;;;-0.50;99.90;;;;;;5005282;28;20073;-75
2020/12/08 04:11:39;;;;;;;107.78;41.08;;;-0.50;99.90;;;;;;5008415;28;20081;-74
2020/12/08 04:14:06;;;;;;;114.38;44.10;;;-0.50;99.90;;;;;;5009069;28;20437;-74
2020/12/08 04:16:34;;;;;;;116.47;42.25;;;-0.50;99.90;;;;;;5007825;28;20523;-74
2020/12/08 04:19:01;;;;;;;114.05;42.67;;;-0.50;99.90;;;;;;4991566;28;20046;-73
2020/12/08 04:21:51;;;;;;;118.97;43.10;;;-0.40;99.90;;;;;;5008580;28;20065;-74
2020/12/08 04:24:17;;;;;;;127.85;45.83;;;-0.40;99.90;;;;;;5008413;28;20092;-73
2020/12/08 04:26:45;;;;;;;119.60;43.58;;;-0.40;99.90;;;;;;5009266;28;20139;-73
2020/12/08 04:29:12;;;;;;;126.10;43.85;;;-0.40;99.90;;;;;;4990751;28;20045;-74
2020/12/08 04:31:38;;;;;;;117.13;44.13;;;-0.40;99.90;;;;;;5006987;28;20045;-77
2020/12/08 04:34:05;;;;;;;118.88;44.45;;;-0.50;99.90;;;;;;5009024;28;20127;-73
2020/12/08 04:36:35;;;;;;;135.45;46.33;;;-0.40;99.90;;;;;;5008299;28;20412;-72
2020/12/08 04:39:02;;;;;;;128.57;45.65;;;-0.40;99.90;;;;;;4991390;28;20046;-75
2020/12/08 04:41:29;;;;;;;126.63;44.80;;;-0.40;99.90;;;;;;4990722;28;20060;-73
2020/12/08 04:43:55;;;;;;;125.25;43.80;;;-0.40;99.90;;;;;;5008541;28;20077;-73
2020/12/08 04:46:22;;;;;;;128.27;42.85;;;-0.30;99.90;;;;;;5007786;28;20049;-73
2020/12/08 04:48:50;;;;;;;115.50;42.50;;;-0.30;99.90;;;;;;5007992;28;20057;-74
2020/12/08 04:51:35;;;;;;;121.63;44.55;;;-0.30;99.90;;;;;;5008365;28;20362;-75
2020/12/08 04:54:06;;;;;;;126.20;43.13;;;-0.30;99.90;;;;;;4994829;28;20129;-73
2020/12/08 04:56:34;;;;;;;111.75;42.15;;;-0.30;99.90;;;;;;5004050;28;20054;-74
2020/12/08 04:59:00;;;;;;;122.72;44.80;;;-0.30;99.90;;;;;;5006825;28;20134;-73
2020/12/08 05:01:28;;;;;;;121.38;43.95;;;-0.30;99.90;;;;;;5007268;28;20049;-74
2020/12/08 05:04:01;;;;;;;112.88;42.40;;;-0.30;99.90;;;;;;5008039;28;20544;-73
2020/12/08 05:06:30;;;;;;;110.35;41.83;;;-0.30;99.90;;;;;;4990988;28;20124;-73
2020/12/08 05:09:14;;;;;;;111.32;40.67;;;-0.30;99.90;;;;;;5009661;28;20413;-74
2020/12/08 05:11:41;;;;;;;116.05;42.85;;;-0.30;99.90;;;;;;5011688;28;20516;-73
2020/12/08 05:14:07;;;;;;;107.68;39.63;;;-0.40;99.90;;;;;;5011644;28;20077;-74
2020/12/08 05:16:34;;;;;;;114.40;41.75;;;-0.40;99.90;;;;;;4993073;28;20152;-75
2020/12/08 05:19:08;;;;;;;112.63;41.95;;;-0.40;99.90;;;;;;5011983;28;20362;-74
2020/12/08 05:21:51;;;;;;;103.38;39.35;;;-0.40;99.90;;;;;;5011436;28;20081;-74
2020/12/08 05:24:29;;;;;;;113.18;40.65;;;-0.40;99.90;;;;;;5011534;28;20142;-75
2020/12/08 05:27:01;;;;;;;121.53;41.90;;;-0.40;99.90;;;;;;4993991;28;20412;-74
2020/12/08 05:29:28;;;;;;;115.03;41.42;;;-0.40;99.90;;;;;;4993687;28;20050;-75
2020/12/08 05:31:56;;;;;;;106.95;40.58;;;-0.40;99.90;;;;;;5010085;28;20050;-75
2020/12/08 05:34:26;;;;;;;110.07;40.25;;;-0.40;99.90;;;;;;4994001;28;20060;-74
2020/12/08 05:36:53;;;;;;;113.32;40.72;;;-0.40;99.90;;;;;;4993714;28;20689;-76
2020/12/08 05:39:22;;;;;;;116.03;41.38;;;-0.40;99.90;;;;;;5009896;28;20119;-73
2020/12/08 05:41:49;;;;;;;123.50;41.97;;;-0.40;99.90;;;;;;5011121;28;20463;-73
2020/12/08 05:44:23;;;;;;;108.80;43.15;;;-0.40;99.90;;;;;;5011543;28;20469;-73
2020/12/08 05:46:51;;;;;;;108.75;40.50;;;-0.40;99.90;;;;;;5006240;28;20128;-74
2020/12/08 05:49:19;;;;;;;107.60;41.38;;;-0.40;99.90;;;;;;5011719;28;20112;-74
2020/12/08 05:51:47;;;;;;;118.38;42.38;;;-0.30;99.90;;;;;;5010948;28;20050;-75
2020/12/08 05:54:18;;;;;;;109.25;41.67;;;-0.30;99.90;;;;;;5011019;28;20050;-75
2020/12/08 05:56:44;;;;;;;117.70;40.65;;;-0.40;99.90;;;;;;5007192;28;20053;-73
2020/12/08 05:59:11;;;;;;;126.22;42.58;;;-0.40;99.90;;;;;;5011003;28;20081;-74
2020/12/08 06:01:48;;;;;;;122.22;43.15;;;-0.40;99.90;;;;;;4992430;28;20046;-73
2020/12/08 06:04:14;;;;;;;125.70;43.00;;;-0.40;99.90;;;;;;4996664;28;20409;-73
2020/12/08 06:06:51;;;;;;;132.13;44.42;;;-0.40;99.90;;;;;;5011187;28;20150;-73
2020/12/08 06:09:26;;;;;;;118.63;44.10;;;-0.40;99.90;;;;;;5010562;28;20465;-73
2020/12/08 06:11:53;;;;;;;116.88;41.58;;;-0.50;99.90;;;;;;5010127;28;20505;-73
2020/12/08 06:14:30;;;;;;;117.50;41.58;;;-0.60;99.90;;;;;;5010726;28;20046;-74
2020/12/08 06:17:00;;;;;;;110.22;41.58;;;-0.60;99.90;;;;;;4992231;28;20425;-73
2020/12/08 06:19:26;;;;;;;114.82;42.75;;;-0.70;99.90;;;;;;5010425;28;20086;-74
2020/12/08 06:21:53;;;;;;;123.20;41.97;;;-0.80;99.90;;;;;;5010658;28;20097;-73
2020/12/08 06:24:19;;;;;;;114.03;39.83;;;-0.80;99.90;;;;;;5010125;28;20049;-74
2020/12/08 06:26:46;;;;;;;101.93;38.70;;;-0.90;99.90;;;;;;5010910;28;20053;-73
2020/12/08 06:29:13;;;;;;;90.88;37.63;;;-1.00;99.90;;;;;;5001086;28;20104;-73
2020/12/08 06:31:47;;;;;;;105.43;37.97;;;-1.00;99.90;;;;;;5008780;28;20053;-74
2020/12/08 06:34:29;;;;;;;110.18;38.35;;;-1.10;99.90;;;;;;5005798;28;20066;-73
2020/12/08 06:37:08;;;;;;;79.65;28.23;;;-1.10;99.90;;;;;;5009798;28;20042;-74
2020/12/08 06:39:34;;;;;;;102.50;36.85;;;-1.10;99.90;;;;;;5009349;28;20045;-74
2020/12/08 06:42:12;;;;;;;146.38;43.47;;;-1.20;99.90;;;;;;5009517;28;20061;-74
2020/12/08 06:44:38;;;;;;;105.18;39.75;;;-1.20;99.90;;;;;;4989310;28;20050;-74
2020/12/08 06:47:05;;;;;;;120.75;41.97;;;-1.20;99.90;;;;;;5008134;28;20065;-74
2020/12/08 06:49:39;;;;;;;104.95;40.28;;;-1.20;99.90;;;;;;5010161;28;20092;-74
2020/12/08 06:52:09;;;;;;;128.70;43.22;;;-1.30;99.90;;;;;;5008241;28;20053;-74
2020/12/08 06:54:36;;;;;;;130.30;44.58;;;-1.30;99.90;;;;;;5007652;28;20111;-74
2020/12/08 06:57:05;;;;;;;133.77;45.72;;;-1.30;99.90;;;;;;4989712;28;20121;-75
2020/12/08 06:59:32;;;;;;;151.23;46.08;;;-1.40;99.90;;;;;;4992377;28;20085;-74
2020/12/08 07:01:59;;;;;;;140.45;44.90;;;-1.40;99.90;;;;;;5008328;28;20054;-75
2020/12/08 07:04:27;;;;;;;140.95;46.10;;;-1.40;99.90;;;;;;5006718;28;20061;-74
2020/12/08 07:06:57;;;;;;;169.02;50.47;;;-1.40;99.90;;;;;;4991026;28;20130;-75
2020/12/08 07:09:24;;;;;;;166.73;48.60;;;-1.40;99.90;;;;;;4991435;28;20053;-74
2020/12/08 07:12:00;;;;;;;153.32;46.70;;;-1.40;99.90;;;;;;4992017;28;20050;-73
2020/12/08 07:14:29;;;;;;;162.77;48.92;;;-1.50;99.90;;;;;;4988464;28;20367;-73
2020/12/08 07:16:55;;;;;;;151.20;49.30;;;-1.50;99.90;;;;;;4983409;28;20096;-73
2020/12/08 07:19:22;;;;;;;173.00;49.85;;;-1.50;99.90;;;;;;5005930;28;20136;-74
2020/12/08 07:21:59;;;;;;;176.38;51.50;;;-1.50;99.90;;;;;;5004763;28;20050;-77
2020/12/08 07:24:26;;;;;;;163.32;50.58;;;-1.50;99.90;;;;;;5002631;28;20065;-72
2020/12/08 07:26:59;;;;;;;149.82;47.08;;;-1.50;99.90;;;;;;5008994;28;20077;-73
2020/12/08 07:29:26;;;;;;;153.45;46.72;;;-1.60;99.90;;;;;;5005536;28;20045;-73
2020/12/08 07:31:52;;;;;;;159.40;48.42;;;-1.60;99.90;;;;;;4972180;28;20047;-74
2020/12/08 07:34:19;;;;;;;155.05;47.30;;;-1.70;99.90;;;;;;5000703;28;20073;-73
2020/12/08 07:36:46;;;;;;;159.93;48.38;;;-1.70;99.90;;;;;;5009509;28;20042;-74
2020/12/08 07:39:19;;;;;;;161.48;51.83;;;-1.70;99.90;;;;;;4991783;28;20046;-74
2020/12/08 07:41:45;;;;;;;164.65;50.03;;;-1.70;99.90;;;;;;4991804;28;20489;-72
2020/12/08 07:44:14;;;;;;;138.50;45.60;;;-1.70;99.90;;;;;;5008830;28;20049;-72
2020/12/08 07:46:52;;;;;;;168.00;50.08;;;-1.70;99.90;;;;;;5008020;28;20049;-72
2020/12/08 07:49:19;;;;;;;145.10;45.80;;;-1.70;99.90;;;;;;5009419;28;20049;-73
2020/12/08 07:51:50;;;;;;;156.00;47.65;;;-1.70;99.90;;;;;;5009071;28;20046;-72
2020/12/08 07:54:17;;;;;;;150.77;48.60;;;-1.70;99.90;;;;;;5008692;28;20164;-74
2020/12/08 07:56:44;;;;;;;143.02;47.42;;;-1.70;99.90;;;;;;4987606;28;20073;-73
2020/12/08 07:59:11;;;;;;;156.20;49.38;;;-1.70;99.90;;;;;;5008357;28;20046;-76
2020/12/08 08:01:42;;;;;;;159.80;49.05;;;-1.60;99.90;;;;;;4989662;28;20473;-74
2020/12/08 08:04:09;;;;;;;170.35;51.13;;;-1.60;99.90;;;;;;5009212;28;20125;-74
2020/12/08 08:06:36;;;;;;;169.98;51.45;;;-1.50;99.90;;;;;;5004549;28;20054;-73
2020/12/08 08:09:06;;;;;;;190.85;54.03;;;-1.40;99.90;;;;;;5008825;28;20147;-74
2020/12/08 08:11:35;;;;;;;207.27;55.95;;;-1.20;99.90;;;;;;4987909;28;20180;-73
2020/12/08 08:14:03;;;;;;;202.23;57.95;;;-0.90;99.90;;;;;;4991071;28;20046;-76
2020/12/08 08:16:30;;;;;;;206.02;55.97;;;-0.80;99.90;;;;;;5008405;28;20042;-73
2020/12/08 08:18:57;;;;;;;211.75;57.00;;;-0.60;99.90;;;;;;4991345;28;20056;-73
2020/12/08 08:21:24;;;;;;;199.48;58.40;;;-0.40;99.90;;;;;;5008822;28;20499;-74
2020/12/08 08:23:50;;;;;;;235.18;72.22;;;-0.20;99.90;;;;;;5008732;28;20076;-74
2020/12/08 08:26:17;;;;;;;263.23;67.30;;;0.10;99.90;;;;;;4995103;28;20045;-73
2020/12/08 08:28:44;;;;;;;211.77;61.92;;;0.40;99.90;;;;;;4991039;28;20046;-73
2020/12/08 08:31:10;;;;;;;180.95;57.30;;;0.60;99.90;;;;;;5007509;28;20049;-73
2020/12/08 08:33:36;;;;;;;149.85;53.15;;;0.50;99.90;;;;;;5008626;28;20054;-73
2020/12/08 08:36:03;;;;;;;141.43;51.42;;;0.50;99.90;;;;;;5008625;28;20489;-74
2020/12/08 08:38:30;;;;;;;147.35;51.38;;;0.40;99.90;;;;;;5008646;28;20389;-73
2020/12/08 08:40:57;;;;;;;155.65;52.28;;;0.50;99.90;;;;;;4990839;28;20054;-74
2020/12/08 08:43:25;;;;;;;110.82;44.92;;;0.90;99.90;;;;;;5010907;28;20120;-74
2020/12/08 08:45:52;;;;;;;101.47;41.75;;;1.30;99.90;;;;;;5011585;28;20519;-74
2020/12/08 08:48:19;;;;;;;82.50;38.97;;;1.70;99.90;;;;;;5008172;28;20042;-76
2020/12/08 08:50:47;;;;;;;70.60;35.88;;;2.10;99.90;;;;;;5011850;28;20088;-73
2020/12/08 08:53:14;;;;;;;66.05;33.92;;;2.30;99.90;;;;;;5013175;28;20049;-73
2020/12/08 08:55:41;;;;;;;62.13;34.55;;;2.50;99.90;;;;;;5003516;28;20056;-74
2020/12/08 08:58:13;;;;;;;54.90;30.73;;;2.40;99.90;;;;;;4995877;28;20046;-74
2020/12/08 09:00:39;;;;;;;54.58;30.75;;;2.80;99.90;;;;;;5011076;28;20484;-74
2020/12/08 09:03:08;;;;;;;49.65;29.10;;;3.00;99.90;;;;;;5011097;28;20518;-75
2020/12/08 09:05:35;;;;;;;46.63;27.63;;;3.00;99.90;;;;;;5011710;28;20046;-74
2020/12/08 09:08:02;;;;;;;47.35;28.10;;;2.90;99.90;;;;;;4995113;28;20046;-75
2020/12/08 09:10:32;;;;;;;47.03;27.38;;;2.80;99.90;;;;;;5011709;28;20045;-74
2020/12/08 09:12:59;;;;;;;54.45;29.55;;;2.60;99.90;;;;;;5012580;28;20485;-74
2020/12/08 09:15:26;;;;;;;55.20;29.70;;;2.20;99.90;;;;;;4993510;28;20054;-74
2020/12/08 09:17:53;;;;;;;51.90;30.42;;;2.10;99.90;;;;;;4993757;28;20050;-74
2020/12/08 09:20:20;;;;;;;54.83;30.55;;;2.00;99.90;;;;;;5012141;28;20052;-74
2020/12/08 09:22:46;;;;;;;56.63;31.58;;;2.10;99.90;;;;;;5012767;28;20073;-73
2020/12/08 09:25:13;;;;;;;53.33;30.83;;;2.20;99.90;;;;;;5001678;28;20102;-74
2020/12/08 09:27:40;;;;;;;51.58;29.02;;;2.90;99.90;;;;;;5011798;28;20121;-74
2020/12/08 09:30:06;;;;;;;42.47;26.52;;;3.90;99.90;;;;;;5010994;28;20057;-74
2020/12/08 09:32:33;;;;;;;45.17;27.45;;;5.00;99.90;;;;;;5011093;28;20108;-74
2020/12/08 09:34:59;;;;;;;39.70;25.75;;;6.00;99.90;;;;;;5011241;28;20103;-73
2020/12/08 09:37:26;;;;;;;49.47;32.08;;;6.80;99.90;;;;;;4994710;28;20421;-73
2020/12/08 09:39:53;;;;;;;37.55;24.40;;;7.10;99.90;;;;;;5010806;28;20045;-73
2020/12/08 09:42:21;;;;;;;35.63;23.05;;;7.30;99.90;;;;;;5012034;28;20046;-73
2020/12/08 09:44:48;;;;;;;33.35;23.35;;;8.10;99.90;;;;;;5011485;28;20042;-75
2020/12/08 09:47:16;;;;;;;36.83;24.13;;;8.90;97.70;;;;;;5011209;28;20692;-74
2020/12/08 09:49:44;;;;;;;32.78;23.92;;;9.10;94.60;;;;;;5011816;28;20085;-74
2020/12/08 09:52:11;;;;;;;32.72;23.05;;;9.20;94.20;;;;;;5009822;28;20112;-74
2020/12/08 09:54:38;;;;;;;31.50;22.45;;;9.90;91.10;;;;;;5008523;28;20049;-74
2020/12/08 09:57:04;;;;;;;28.55;21.50;;;10.20;88.90;;;;;;5009574;28;20386;-74
2020/12/08 09:59:32;;;;;;;29.48;21.80;;;11.20;80.80;;;;;;4996220;28;20054;-75
2020/12/08 10:02:02;;;;;;;29.80;22.40;;;11.60;77.10;;;;;;4997787;28;20140;-74
2020/12/08 10:04:30;;;;;;;28.50;22.27;;;11.30;77.70;;;;;;5010446;28;20127;-74
2020/12/08 10:06:56;;;;;;;29.38;22.48;;;11.90;73.60;;;;;;4999904;28;20478;-74
2020/12/08 10:09:23;;;;;;;29.42;22.02;;;12.00;73.20;;;;;;4993005;28;20100;-72
2020/12/08 10:11:50;;;;;;;28.17;21.42;;;11.30;75.00;;;;;;5010859;28;20467;-74
2020/12/08 10:14:17;;;;;;;29.17;22.58;;;11.90;72.40;;;;;;5010933;28;20452;-73
2020/12/08 10:16:44;;;;;;;30.73;22.90;;;11.80;71.70;;;;;;5009879;28;20062;-73
2020/12/08 10:19:10;;;;;;;27.58;22.48;;;11.40;73.40;;;;;;5011110;28;20452;-76
2020/12/08 10:21:39;;;;;;;28.90;22.15;;;11.60;72.90;;;;;;4997282;28;20058;-74
2020/12/08 10:24:06;;;;;;;27.80;21.27;;;12.10;70.70;;;;;;5002387;28;20453;-74
2020/12/08 10:26:33;;;;;;;27.42;20.83;;;13.10;66.80;;;;;;5009684;28;20046;-73
2020/12/08 10:29:00;;;;;;;27.45;21.85;;;14.10;61.90;;;;;;5011166;28;20404;-75
2020/12/08 10:31:27;;;;;;;27.10;21.70;;;14.70;59.90;;;;;;5005181;28;20046;-74
2020/12/08 10:33:53;;;;;;;27.27;22.13;;;14.20;60.50;;;;;;4992473;28;20108;-74
2020/12/08 10:36:20;;;;;;;27.95;21.33;;;13.40;61.00;;;;;;5010447;28;20045;-74
2020/12/08 10:38:47;;;;;;;26.83;20.80;;;13.10;63.80;;;;;;5010941;28;20104;-75
2020/12/08 10:41:14;;;;;;;25.08;19.83;;;13.40;63.40;;;;;;5008784;28;20100;-74
2020/12/08 10:43:40;;;;;;;24.67;20.48;;;14.10;62.10;;;;;;5010221;28;20046;-75
2020/12/08 10:46:07;;;;;;;23.58;19.63;;;14.60;58.60;;;;;;5010057;28;20175;-74
2020/12/08 10:48:34;;;;;;;24.52;20.05;;;13.90;58.80;;;;;;5010038;28;20038;-74
2020/12/08 10:51:01;;;;;;;24.35;19.95;;;13.50;60.70;;;;;;5010380;28;20061;-76
2020/12/08 10:53:28;;;;;;;24.10;20.08;;;14.60;57.60;;;;;;4993260;28;20060;-75
2020/12/08 10:55:55;;;;;;;24.52;20.73;;;14.50;58.90;;;;;;5005120;28;20056;-74
2020/12/08 10:58:22;;;;;;;26.23;20.65;;;14.30;58.10;;;;;;5010227;28;20381;-75
2020/12/08 11:00:49;;;;;;;24.95;19.90;;;14.00;58.40;;;;;;5008296;28;20089;-78
2020/12/08 11:03:15;;;;;;;25.70;20.35;;;14.20;58.10;;;;;;5009945;28;20392;-74
2020/12/08 11:05:42;;;;;;;24.65;20.40;;;14.00;58.60;;;;;;5007743;28;20116;-73
2020/12/08 11:08:10;;;;;;;24.85;19.38;;;13.30;61.50;;;;;;5009689;28;20058;-74
2020/12/08 11:10:38;;;;;;;24.70;20.50;;;13.30;60.50;;;;;;5008588;28;20042;-74
2020/12/08 11:13:05;;;;;;;27.48;19.83;;;13.00;60.60;;;;;;5010036;28;20081;-74
2020/12/08 11:15:32;;;;;;;25.60;20.23;;;13.00;63.50;;;;;;4991050;28;20136;-74
2020/12/08 11:17:59;;;;;;;27.63;20.77;;;12.40;62.50;;;;;;4991831;28;20454;-75
2020/12/08 11:20:25;;;;;;;26.23;20.58;;;12.30;63.50;;;;;;5009985;28;20469;-74
2020/12/08 11:22:51;;;;;;;27.08;21.85;;;12.30;63.00;;;;;;5009224;28;20064;-76
2020/12/08 11:25:18;;;;;;;27.98;21.33;;;11.80;63.60;;;;;;4991755;28;20096;-74
2020/12/08 11:27:44;;;;;;;28.45;21.48;;;10.90;66.10;;;;;;4991552;28;20041;-75
2020/12/08 11:30:11;;;;;;;27.67;21.52;;;10.30;68.70;;;;;;5008411;28;20657;-75
2020/12/08 11:32:38;;;;;;;32.00;22.77;;;9.80;72.00;;;;;;5009457;28;20129;-74
2020/12/08 11:35:04;;;;;;;28.23;21.35;;;9.20;77.20;;;;;;5009261;28;20053;-73
2020/12/08 11:37:31;;;;;;;30.52;21.30;;;8.80;79.70;;;;;;5009357;28;20334;-72
2020/12/08 11:40:15;;;;;;;31.40;21.27;;;8.50;83.60;;;;;;5008797;28;20492;-73
2020/12/08 11:42:42;;;;;;;32.13;22.83;;;8.50;87.50;;;;;;5009586;28;20041;-73
2020/12/08 11:45:12;;;;;;;31.52;22.02;;;8.60;88.60;;;;;;5008176;28;20426;-74
2020/12/08 11:47:40;;;;;;;30.58;21.70;;;8.40;90.30;;;;;;5008932;28;20054;-74
2020/12/08 11:50:08;;;;;;;33.40;22.70;;;8.70;90.50;;;;;;4991692;28;20057;-73
2020/12/08 11:52:35;;;;;;;32.47;22.95;;;9.00;89.90;;;;;;4992110;28;20844;-74
2020/12/08 11:55:06;;;;;;;31.17;22.27;;;9.40;89.00;;;;;;4986666;28;20046;-73
2020/12/08 11:57:34;;;;;;;25.65;17.38;;;9.50;88.30;;;;;;5009607;28;20056;-74
2020/12/08 12:00:02;;;;;;;33.80;24.10;;;9.90;84.50;;;;;;4990638;28;20125;-74
2020/12/08 12:02:29;;;;;;;35.45;24.15;;;9.90;83.70;;;;;;5008265;28;20056;-74
2020/12/08 12:04:55;;;;;;;31.48;21.85;;;10.30;80.80;;;;;;4991829;28;20488;-74
2020/12/08 12:07:23;;;;;;;31.80;22.13;;;10.30;80.00;;;;;;5008251;28;20100;-74
2020/12/08 12:09:49;;;;;;;32.65;22.75;;;10.60;78.80;;;;;;4990428;28;20426;-75
2020/12/08 12:12:16;;;;;;;35.03;24.73;;;10.60;78.10;;;;;;5008468;28;20092;-74
2020/12/08 12:14:42;;;;;;;33.33;23.52;;;10.30;77.60;;;;;;5005803;28;20054;-75
2020/12/08 12:17:09;;;;;;;32.75;24.08;;;10.00;80.80;;;;;;5007042;28;20053;-73
2020/12/08 12:19:35;;;;;;;32.45;23.27;;;10.10;81.10;;;;;;5008773;28;20045;-75
2020/12/08 12:22:02;;;;;;;32.95;23.63;;;10.30;79.60;;;;;;5008058;28;20057;-74
2020/12/08 12:24:29;;;;;;;31.42;23.75;;;10.40;79.90;;;;;;5008068;28;20057;-74
2020/12/08 12:26:56;;;;;;;36.03;24.10;;;10.80;77.50;;;;;;5000184;28;20122;-74
2020/12/08 12:29:22;;;;;;;35.60;24.50;;;10.80;75.50;;;;;;5002478;28;20489;-75
2020/12/08 12:31:49;;;;;;;34.22;23.77;;;10.90;75.70;;;;;;4989276;28;20461;-75